»·PEaware :: SWA808 KSAN-KLAS

SWA808 :: KSAN-KLAS

FLIGHT INFORMATION

Flight Status: Arrived
Operator:
Southwest Airlines
More flights by this operator :: More flights under this callsign
Pilot: Skye D. (10623)
Aircraft: BOEING 737-700
(B737)
More flights by this aircraft type
Origin: KSAN San Diego Intl-Lindbergh
United States
Destination: KLAS McCarran Intl
United States
More flights between these airports :: More routes between these airports
Route: PADRZ2 CHKNN SEBBY YELAH MISEN KEPEC6
File this flight plan on PilotEdge
Remarks:
Altitude:
(Current/Filed)
34,000ft
Speed:
(Current/Filed)
437kts
Departed: 20-Aug-19 02:12 PM
Arrived: 20-Aug-19 03:06 PM
Distance/Time
Traveled:
225nm/0:54
Distance/Time
To Go:
Arrived

Flight Plot

Page will automatically refresh every two minutes.

Flight plan parsing failed; only flown route is shown


Map Options




Map Legend


Flown Route
Filed Route
Departure Airport
Arrival Airport
Navaid (VOR, NDB)
Fix

Horizontal Profiles

Position Reports

Time Latitude Longitude Heading Altitude Ground
Speed
20-Aug-19 13:42 32.731561 -117.195538 260 21ft 0kts
20-Aug-19 13:43 32.731561 -117.195538 260 21ft 0kts
20-Aug-19 13:44 32.731561 -117.195538 260 21ft 0kts
20-Aug-19 13:45 32.731561 -117.195538 260 21ft 0kts
20-Aug-19 13:46 32.731561 -117.195538 260 21ft 0kts
20-Aug-19 13:47 32.731561 -117.195538 260 21ft 0kts
20-Aug-19 13:48 32.731561 -117.195538 260 21ft 0kts
20-Aug-19 13:49 32.731561 -117.195538 260 21ft 0kts
20-Aug-19 13:50 32.731561 -117.195538 260 21ft 0kts
20-Aug-19 13:51 32.731561 -117.195538 260 21ft 0kts
20-Aug-19 13:52 32.731561 -117.195538 260 21ft 0kts
20-Aug-19 13:53 32.731561 -117.195538 260 21ft 0kts
20-Aug-19 13:54 32.731561 -117.195538 260 21ft 0kts
20-Aug-19 13:55 32.731561 -117.195538 260 21ft 0kts
20-Aug-19 13:56 32.731561 -117.195538 260 21ft 0kts
20-Aug-19 13:57 32.731561 -117.195538 260 21ft 0kts
20-Aug-19 13:58 32.731586 -117.195212 301 21ft 2kts
20-Aug-19 13:59 32.732003 -117.194937 14 21ft 2kts
20-Aug-19 14:00 32.732112 -117.194897 18 21ft 0kts
20-Aug-19 14:01 32.732112 -117.194897 18 21ft 0kts
20-Aug-19 14:02 32.732112 -117.194897 18 21ft 0kts
20-Aug-19 14:03 32.732190 -117.194863 20 21ft 0kts
20-Aug-19 14:04 32.732637 -117.194604 26 21ft 6kts
20-Aug-19 14:05 32.733309 -117.194037 53 21ft 11kts
20-Aug-19 14:06 32.732027 -117.187591 105 18ft 22kts
20-Aug-19 14:07 32.730273 -117.180409 105 17ft 21kts
20-Aug-19 14:08 32.729518 -117.177260 101 22ft 0kts
20-Aug-19 14:09 32.729571 -117.176955 69 22ft 5kts
20-Aug-19 14:10 32.730452 -117.176878 286 24ft 9kts
20-Aug-19 14:11 32.738805 -117.209522 291 1109ft 153kts
20-Aug-19 14:12 32.765016 -117.259467 305 3156ft 224kts
20-Aug-19 14:13 32.806197 -117.329273 306 6777ft 273kts
20-Aug-19 14:14 32.855125 -117.404439 306 10631ft 299kts
20-Aug-19 14:15 32.910554 -117.490491 306 13853ft 334kts
20-Aug-19 14:16 32.969361 -117.582159 306 16954ft 354kts
20-Aug-19 14:17 33.029847 -117.676559 305 16982ft 350kts
20-Aug-19 14:18 33.096828 -117.763654 317 16981ft 358kts
20-Aug-19 14:19 33.173025 -117.840628 317 20122ft 368kts
20-Aug-19 14:20 33.253988 -117.920563 318 22905ft 383kts
20-Aug-19 14:21 33.339004 -118.003533 316 25501ft 393kts
20-Aug-19 14:22 33.425956 -118.088663 315 27903ft 401kts
20-Aug-19 14:23 33.514875 -118.175942 314 30069ft 409kts
20-Aug-19 14:24 33.610097 -118.254968 327 31957ft 428kts
20-Aug-19 14:25 33.720604 -118.306895 351 33963ft 445kts
20-Aug-19 14:26 33.821664 -118.234279 52 34007ft 496kts
20-Aug-19 14:27 33.895967 -118.105382 52 33997ft 495kts
20-Aug-19 14:28 33.973039 -117.975313 52 33985ft 496kts
20-Aug-19 14:29 34.051284 -117.842683 52 33975ft 496kts
20-Aug-19 14:31 34.131492 -117.715721 47 33992ft 495kts
20-Aug-19 14:32 34.219818 -117.586895 47 34035ft 496kts
20-Aug-19 14:33 34.309645 -117.455101 47 34051ft 496kts
20-Aug-19 14:34 34.402213 -117.318737 48 34042ft 496kts
20-Aug-19 14:35 34.493788 -117.183437 48 34041ft 496kts
20-Aug-19 14:36 34.582388 -117.051943 48 34061ft 496kts
20-Aug-19 14:37 34.671148 -116.919783 48 34103ft 489kts
20-Aug-19 14:38 34.759055 -116.788308 48 33954ft 491kts
20-Aug-19 14:39 34.852195 -116.651515 41 30355ft 508kts
20-Aug-19 14:40 34.955447 -116.546529 35 27790ft 443kts
20-Aug-19 14:41 35.052785 -116.452183 36 25281ft 428kts
20-Aug-19 14:42 35.141461 -116.355219 44 24002ft 412kts
20-Aug-19 14:43 35.223118 -116.252715 45 23998ft 414kts
20-Aug-19 14:44 35.304760 -116.150164 45 23978ft 411kts
20-Aug-19 14:45 35.383968 -116.050360 45 21761ft 401kts
20-Aug-19 14:46 35.461285 -115.952642 45 19486ft 387kts
20-Aug-19 14:47 35.535128 -115.859044 44 17318ft 370kts
20-Aug-19 14:48 35.605309 -115.769840 45 15209ft 351kts
20-Aug-19 14:48 35.660730 -115.699221 45 13527ft 334kts
20-Aug-19 14:50 35.733030 -115.608615 37 13066ft 312kts
20-Aug-19 14:51 35.813732 -115.572624 2 13068ft 309kts
20-Aug-19 14:51 35.885939 -115.568333 0 13055ft 312kts
20-Aug-19 14:53 35.977819 -115.516027 50 13033ft 321kts
20-Aug-19 14:53 36.011870 -115.436098 68 12127ft 308kts
20-Aug-19 14:54 36.027354 -115.335367 94 10855ft 281kts
20-Aug-19 14:56 36.020264 -115.225485 97 9218ft 260kts
20-Aug-19 14:56 36.015446 -115.150471 94 7789ft 253kts
20-Aug-19 14:58 36.017408 -115.052137 60 6138ft 230kts
20-Aug-19 14:58 36.061258 -115.017885 22 5010ft 213kts
20-Aug-19 14:59 36.110869 -114.994339 16 4530ft 181kts
20-Aug-19 15:00 36.155091 -115.017166 317 4365ft 181kts
20-Aug-19 15:01 36.176823 -115.070145 265 3481ft 164kts
20-Aug-19 15:02 36.161979 -115.116669 210 3283ft 153kts
20-Aug-19 15:03 36.122951 -115.139629 204 2670ft 156kts
20-Aug-19 15:04 36.088023 -115.159545 202 2123ft 79kts
20-Aug-19 15:05 36.082540 -115.160993 171 2140ft 8kts
20-Aug-19 15:06 36.081622 -115.156526 89 2127ft 22kts
20-Aug-19 15:07 36.081038 -115.152718 102 2116ft 8kts
20-Aug-19 15:08 36.080794 -115.149119 142 2102ft 9kts
20-Aug-19 15:09 36.080284 -115.147373 65 2096ft 3kts
20-Aug-19 15:10 36.080310 -115.147303 65 2096ft 0kts
20-Aug-19 15:11 36.080310 -115.147303 65 2096ft 0kts

Navigation Log

Ident Type
Flight plan parsing failed, navigation log unavailable